sensor_id;sensor_type;location;lat;lon;timestamp;temperature;humidity
43541;DHT22;29549;40.386;-3.710;2023-05-09T00:09:23;23.50;34.90
43541;DHT22;29549;40.386;-3.710;2023-05-09T00:19:24;23.30;35.50
43541;DHT22;29549;40.386;-3.710;2023-05-09T00:29:25;23.30;36.50
43541;DHT22;29549;40.386;-3.710;2023-05-09T00:39:26;23.30;36.80
43541;DHT22;29549;40.386;-3.710;2023-05-09T00:49:26;23.20;37.00
43541;DHT22;29549;40.386;-3.710;2023-05-09T00:59:27;23.20;37.10
43541;DHT22;29549;40.386;-3.710;2023-05-09T01:09:49;23.20;37.10
43541;DHT22;29549;40.386;-3.710;2023-05-09T01:30:11;23.00;37.20
43541;DHT22;29549;40.386;-3.710;2023-05-09T01:40:15;22.90;37.30
43541;DHT22;29549;40.386;-3.710;2023-05-09T01:50:17;22.90;37.40
43541;DHT22;29549;40.386;-3.710;2023-05-09T02:00:18;22.80;37.70
43541;DHT22;29549;40.386;-3.710;2023-05-09T02:10:19;22.70;39.20
43541;DHT22;29549;40.386;-3.710;2023-05-09T02:20:20;22.60;40.00
43541;DHT22;29549;40.386;-3.710;2023-05-09T02:30:22;22.40;40.60
43541;DHT22;29549;40.386;-3.710;2023-05-09T02:40:25;22.30;41.30
43541;DHT22;29549;40.386;-3.710;2023-05-09T02:50:26;22.20;41.70
43541;DHT22;29549;40.386;-3.710;2023-05-09T03:00:26;22.20;42.80
43541;DHT22;29549;40.386;-3.710;2023-05-09T03:10:27;22.10;43.10
43541;DHT22;29549;40.386;-3.710;2023-05-09T03:20:28;22.10;42.90
43541;DHT22;29549;40.386;-3.710;2023-05-09T03:30:28;22.30;42.90
43541;DHT22;29549;40.386;-3.710;2023-05-09T03:40:29;22.20;43.10
43541;DHT22;29549;40.386;-3.710;2023-05-09T03:50:29;22.10;43.40
43541;DHT22;29549;40.386;-3.710;2023-05-09T04:00:30;21.90;43.50
43541;DHT22;29549;40.386;-3.710;2023-05-09T04:10:31;21.80;43.90
43541;DHT22;29549;40.386;-3.710;2023-05-09T04:20:32;21.90;43.90
43541;DHT22;29549;40.386;-3.710;2023-05-09T04:30:32;21.70;44.30
43541;DHT22;29549;40.386;-3.710;2023-05-09T04:40:33;21.60;45.10
43541;DHT22;29549;40.386;-3.710;2023-05-09T04:50:33;21.40;45.90
43541;DHT22;29549;40.386;-3.710;2023-05-09T05:00:35;21.40;46.50
43541;DHT22;29549;40.386;-3.710;2023-05-09T05:10:35;21.20;46.50
43541;DHT22;29549;40.386;-3.710;2023-05-09T05:20:36;21.30;46.70
43541;DHT22;29549;40.386;-3.710;2023-05-09T05:30:39;21.20;47.00
43541;DHT22;29549;40.386;-3.710;2023-05-09T05:40:40;21.20;47.30
43541;DHT22;29549;40.386;-3.710;2023-05-09T05:50:40;21.20;47.20
43541;DHT22;29549;40.386;-3.710;2023-05-09T06:00:41;21.20;47.40
43541;DHT22;29549;40.386;-3.710;2023-05-09T06:10:41;21.20;47.70
43541;DHT22;29549;40.386;-3.710;2023-05-09T06:20:42;21.20;47.90
43541;DHT22;29549;40.386;-3.710;2023-05-09T06:30:43;21.20;48.10
43541;DHT22;29549;40.386;-3.710;2023-05-09T06:40:43;21.20;48.20
43541;DHT22;29549;40.386;-3.710;2023-05-09T06:50:44;22.00;47.00
43541;DHT22;29549;40.386;-3.710;2023-05-09T07:00:45;22.60;45.80
43541;DHT22;29549;40.386;-3.710;2023-05-09T07:10:46;23.00;45.20
43541;DHT22;29549;40.386;-3.710;2023-05-09T07:20:47;23.50;44.10
43541;DHT22;29549;40.386;-3.710;2023-05-09T07:30:47;23.70;42.70
43541;DHT22;29549;40.386;-3.710;2023-05-09T07:40:49;24.20;42.10
43541;DHT22;29549;40.386;-3.710;2023-05-09T07:50:49;24.60;41.30
43541;DHT22;29549;40.386;-3.710;2023-05-09T08:00:50;24.90;40.30
43541;DHT22;29549;40.386;-3.710;2023-05-09T08:10:51;25.20;39.30
43541;DHT22;29549;40.386;-3.710;2023-05-09T08:20:51;25.20;38.90
43541;DHT22;29549;40.386;-3.710;2023-05-09T08:30:52;25.10;38.50
43541;DHT22;29549;40.386;-3.710;2023-05-09T08:40:58;25.00;39.50
43541;DHT22;29549;40.386;-3.710;2023-05-09T08:50:59;25.30;39.20
43541;DHT22;29549;40.386;-3.710;2023-05-09T09:01:01;25.70;38.40
43541;DHT22;29549;40.386;-3.710;2023-05-09T09:11:03;25.80;38.20
43541;DHT22;29549;40.386;-3.710;2023-05-09T09:21:05;25.90;38.50
43541;DHT22;29549;40.386;-3.710;2023-05-09T09:31:22;25.70;37.70
43541;DHT22;29549;40.386;-3.710;2023-05-09T09:41:28;25.60;38.30
43541;DHT22;29549;40.386;-3.710;2023-05-09T09:51:29;25.70;37.90
43541;DHT22;29549;40.386;-3.710;2023-05-09T10:01:33;25.80;38.30
43541;DHT22;29549;40.386;-3.710;2023-05-09T10:11:34;25.90;37.80
43541;DHT22;29549;40.386;-3.710;2023-05-09T10:21:34;25.70;38.30
43541;DHT22;29549;40.386;-3.710;2023-05-09T10:31:36;25.60;37.20
43541;DHT22;29549;40.386;-3.710;2023-05-09T10:41:38;25.70;37.60
43541;DHT22;29549;40.386;-3.710;2023-05-09T10:51:39;25.70;37.30
43541;DHT22;29549;40.386;-3.710;2023-05-09T11:01:39;25.70;37.70
43541;DHT22;29549;40.386;-3.710;2023-05-09T11:11:47;25.80;37.20
43541;DHT22;29549;40.386;-3.710;2023-05-09T11:21:58;25.90;36.10
43541;DHT22;29549;40.386;-3.710;2023-05-09T11:32:07;26.20;35.20
43541;DHT22;29549;40.386;-3.710;2023-05-09T11:42:12;26.30;34.90
43541;DHT22;29549;40.386;-3.710;2023-05-09T11:52:13;26.30;35.60
43541;DHT22;29549;40.386;-3.710;2023-05-09T12:02:13;26.20;34.00
43541;DHT22;29549;40.386;-3.710;2023-05-09T12:12:14;26.30;33.80
43541;DHT22;29549;40.386;-3.710;2023-05-09T12:22:17;26.40;32.20
43541;DHT22;29549;40.386;-3.710;2023-05-09T12:32:17;26.50;33.60
43541;DHT22;29549;40.386;-3.710;2023-05-09T12:42:18;26.30;34.80
43541;DHT22;29549;40.386;-3.710;2023-05-09T12:52:19;26.20;35.90
43541;DHT22;29549;40.386;-3.710;2023-05-09T13:02:19;26.30;35.50
43541;DHT22;29549;40.386;-3.710;2023-05-09T13:12:20;26.60;35.20
43541;DHT22;29549;40.386;-3.710;2023-05-09T13:22:21;26.80;34.50
43541;DHT22;29549;40.386;-3.710;2023-05-09T13:32:21;26.90;34.50
43541;DHT22;29549;40.386;-3.710;2023-05-09T13:42:24;27.10;33.60
43541;DHT22;29549;40.386;-3.710;2023-05-09T13:52:24;27.10;33.90
43541;DHT22;29549;40.386;-3.710;2023-05-09T14:02:25;27.20;33.60
43541;DHT22;29549;40.386;-3.710;2023-05-09T14:12:26;27.20;33.90
43541;DHT22;29549;40.386;-3.710;2023-05-09T14:22:28;27.30;34.10
43541;DHT22;29549;40.386;-3.710;2023-05-09T14:32:28;27.20;33.70
43541;DHT22;29549;40.386;-3.710;2023-05-09T14:42:29;27.30;33.30
43541;DHT22;29549;40.386;-3.710;2023-05-09T14:52:29;27.40;32.30
43541;DHT22;29549;40.386;-3.710;2023-05-09T15:02:30;27.30;32.80
43541;DHT22;29549;40.386;-3.710;2023-05-09T15:12:31;27.30;33.10
43541;DHT22;29549;40.386;-3.710;2023-05-09T15:22:31;27.20;32.60
43541;DHT22;29549;40.386;-3.710;2023-05-09T15:32:33;27.30;32.40
43541;DHT22;29549;40.386;-3.710;2023-05-09T15:42:37;27.10;33.60
43541;DHT22;29549;40.386;-3.710;2023-05-09T15:52:37;27.00;34.50
43541;DHT22;29549;40.386;-3.710;2023-05-09T16:02:38;27.00;33.80
43541;DHT22;29549;40.386;-3.710;2023-05-09T16:12:40;27.00;35.20
43541;DHT22;29549;40.386;-3.710;2023-05-09T16:22:40;27.00;32.40
43541;DHT22;29549;40.386;-3.710;2023-05-09T16:32:41;27.20;33.30
43541;DHT22;29549;40.386;-3.710;2023-05-09T16:42:42;27.00;33.40
43541;DHT22;29549;40.386;-3.710;2023-05-09T16:52:43;27.00;35.00
43541;DHT22;29549;40.386;-3.710;2023-05-09T17:02:43;26.80;33.20
43541;DHT22;29549;40.386;-3.710;2023-05-09T17:12:44;26.80;32.00
43541;DHT22;29549;40.386;-3.710;2023-05-09T17:22:44;26.80;31.90
43541;DHT22;29549;40.386;-3.710;2023-05-09T17:32:45;26.70;33.00
43541;DHT22;29549;40.386;-3.710;2023-05-09T17:42:46;26.60;32.70
43541;DHT22;29549;40.386;-3.710;2023-05-09T17:52:47;26.40;33.50
43541;DHT22;29549;40.386;-3.710;2023-05-09T18:02:50;26.40;32.20
43541;DHT22;29549;40.386;-3.710;2023-05-09T18:12:51;26.30;32.80
43541;DHT22;29549;40.386;-3.710;2023-05-09T18:22:52;26.10;33.00
43541;DHT22;29549;40.386;-3.710;2023-05-09T18:32:53;25.90;32.90
43541;DHT22;29549;40.386;-3.710;2023-05-09T18:42:59;25.90;33.00
43541;DHT22;29549;40.386;-3.710;2023-05-09T18:52:59;25.60;32.70
43541;DHT22;29549;40.386;-3.710;2023-05-09T19:03:00;25.50;31.50
43541;DHT22;29549;40.386;-3.710;2023-05-09T19:13:01;25.40;31.30
43541;DHT22;29549;40.386;-3.710;2023-05-09T19:23:02;25.20;31.30
43541;DHT22;29549;40.386;-3.710;2023-05-09T19:33:02;25.10;30.80
43541;DHT22;29549;40.386;-3.710;2023-05-09T19:43:03;24.90;30.80
43541;DHT22;29549;40.386;-3.710;2023-05-09T19:53:04;24.80;30.30
43541;DHT22;29549;40.386;-3.710;2023-05-09T20:03:04;24.70;30.00
43541;DHT22;29549;40.386;-3.710;2023-05-09T20:13:05;24.50;30.10
43541;DHT22;29549;40.386;-3.710;2023-05-09T20:23:06;24.40;29.70
43541;DHT22;29549;40.386;-3.710;2023-05-09T20:33:06;24.30;29.50
43541;DHT22;29549;40.386;-3.710;2023-05-09T20:43:07;24.10;29.50
43541;DHT22;29549;40.386;-3.710;2023-05-09T20:53:08;23.90;30.00
43541;DHT22;29549;40.386;-3.710;2023-05-09T21:03:08;23.80;29.90
43541;DHT22;29549;40.386;-3.710;2023-05-09T21:13:09;23.60;30.30
43541;DHT22;29549;40.386;-3.710;2023-05-09T21:23:10;23.60;30.20
43541;DHT22;29549;40.386;-3.710;2023-05-09T21:33:10;23.40;30.60
43541;DHT22;29549;40.386;-3.710;2023-05-09T21:43:11;23.20;31.00
43541;DHT22;29549;40.386;-3.710;2023-05-09T21:53:12;23.10;31.10
43541;DHT22;29549;40.386;-3.710;2023-05-09T22:03:12;22.90;31.30
43541;DHT22;29549;40.386;-3.710;2023-05-09T22:13:13;22.80;31.20
43541;DHT22;29549;40.386;-3.710;2023-05-09T22:23:13;22.70;31.40
43541;DHT22;29549;40.386;-3.710;2023-05-09T22:33:14;22.50;31.40
43541;DHT22;29549;40.386;-3.710;2023-05-09T22:43:15;22.30;31.50
43541;DHT22;29549;40.386;-3.710;2023-05-09T22:53:16;22.20;31.50
43541;DHT22;29549;40.386;-3.710;2023-05-09T23:03:16;22.00;31.60
43541;DHT22;29549;40.386;-3.710;2023-05-09T23:13:17;21.90;31.70
43541;DHT22;29549;40.386;-3.710;2023-05-09T23:23:18;22.00;31.70
43541;DHT22;29549;40.386;-3.710;2023-05-09T23:33:18;22.00;33.20
43541;DHT22;29549;40.386;-3.710;2023-05-09T23:43:19;21.90;39.70
43541;DHT22;29549;40.386;-3.710;2023-05-09T23:53:20;21.80;42.10
